sensor_id;sensor_type;location;lat;lon;timestamp;temperature;humidity
20504;DHT22;10410;51.046;6.980;2022-10-16T00:04:20;14.50;99.90
20504;DHT22;10410;51.046;6.980;2022-10-16T00:11:23;14.50;99.90
20504;DHT22;10410;51.046;6.980;2022-10-16T00:18:25;14.50;99.90
20504;DHT22;10410;51.046;6.980;2022-10-16T00:25:26;14.50;99.90
20504;DHT22;10410;51.046;6.980;2022-10-16T00:32:26;14.50;99.90
20504;DHT22;10410;51.046;6.980;2022-10-16T00:39:27;14.50;99.90
20504;DHT22;10410;51.046;6.980;2022-10-16T00:46:35;14.50;99.90
20504;DHT22;10410;51.046;6.980;2022-10-16T00:53:37;14.40;99.90
20504;DHT22;10410;51.046;6.980;2022-10-16T01:00:38;14.40;99.90
20504;DHT22;10410;51.046;6.980;2022-10-16T01:23:09;14.20;99.90
20504;DHT22;10410;51.046;6.980;2022-10-16T01:30:15;14.10;99.90
20504;DHT22;10410;51.046;6.980;2022-10-16T01:37:29;14.00;99.90
20504;DHT22;10410;51.046;6.980;2022-10-16T01:44:33;14.00;99.90
20504;DHT22;10410;51.046;6.980;2022-10-16T01:51:37;13.90;99.90
20504;DHT22;10410;51.046;6.980;2022-10-16T01:58:46;13.90;99.90
20504;DHT22;10410;51.046;6.980;2022-10-16T02:05:55;13.80;99.90
20504;DHT22;10410;51.046;6.980;2022-10-16T02:13:19;13.80;99.90
20504;DHT22;10410;51.046;6.980;2022-10-16T02:20:26;13.80;99.90
20504;DHT22;10410;51.046;6.980;2022-10-16T02:27:46;13.80;99.90
20504;DHT22;10410;51.046;6.980;2022-10-16T02:34:50;13.70;99.90
20504;DHT22;10410;51.046;6.980;2022-10-16T02:41:51;13.70;99.90
20504;DHT22;10410;51.046;6.980;2022-10-16T02:48:52;13.70;99.90
20504;DHT22;10410;51.046;6.980;2022-10-16T02:55:53;13.70;99.90
20504;DHT22;10410;51.046;6.980;2022-10-16T03:02:53;13.60;99.90
20504;DHT22;10410;51.046;6.980;2022-10-16T03:09:54;13.60;99.90
20504;DHT22;10410;51.046;6.980;2022-10-16T03:16:55;13.60;99.90
20504;DHT22;10410;51.046;6.980;2022-10-16T03:23:55;13.60;99.90
20504;DHT22;10410;51.046;6.980;2022-10-16T03:30:56;13.50;99.90
20504;DHT22;10410;51.046;6.980;2022-10-16T03:37:56;13.50;99.90
20504;DHT22;10410;51.046;6.980;2022-10-16T03:44:57;13.40;99.90
20504;DHT22;10410;51.046;6.980;2022-10-16T03:51:58;13.40;99.90
20504;DHT22;10410;51.046;6.980;2022-10-16T03:58:58;13.30;99.90
20504;DHT22;10410;51.046;6.980;2022-10-16T04:05:59;13.30;99.90
20504;DHT22;10410;51.046;6.980;2022-10-16T04:13:00;13.30;99.90
20504;DHT22;10410;51.046;6.980;2022-10-16T04:20:00;13.30;99.90
20504;DHT22;10410;51.046;6.980;2022-10-16T04:27:02;13.40;99.90
20504;DHT22;10410;51.046;6.980;2022-10-16T04:34:03;13.40;99.90
20504;DHT22;10410;51.046;6.980;2022-10-16T04:41:04;13.40;99.90
20504;DHT22;10410;51.046;6.980;2022-10-16T04:48:05;13.30;99.90
20504;DHT22;10410;51.046;6.980;2022-10-16T04:55:06;13.30;99.90
20504;DHT22;10410;51.046;6.980;2022-10-16T05:02:07;13.30;99.90
20504;DHT22;10410;51.046;6.980;2022-10-16T05:09:08;13.20;99.90
20504;DHT22;10410;51.046;6.980;2022-10-16T05:16:09;13.20;99.90
20504;DHT22;10410;51.046;6.980;2022-10-16T05:23:09;13.20;99.90
20504;DHT22;10410;51.046;6.980;2022-10-16T05:30:10;13.20;99.90
20504;DHT22;10410;51.046;6.980;2022-10-16T05:37:12;13.10;99.90
20504;DHT22;10410;51.046;6.980;2022-10-16T05:44:12;13.10;99.90
20504;DHT22;10410;51.046;6.980;2022-10-16T05:51:14;13.10;99.90
20504;DHT22;10410;51.046;6.980;2022-10-16T05:58:15;13.10;99.90
20504;DHT22;10410;51.046;6.980;2022-10-16T06:05:15;13.10;99.90
20504;DHT22;10410;51.046;6.980;2022-10-16T06:12:16;13.10;99.90
20504;DHT22;10410;51.046;6.980;2022-10-16T06:19:17;13.10;99.90
20504;DHT22;10410;51.046;6.980;2022-10-16T06:26:21;13.10;99.90
20504;DHT22;10410;51.046;6.980;2022-10-16T06:33:21;13.10;99.90
20504;DHT22;10410;51.046;6.980;2022-10-16T06:40:22;13.10;99.90
20504;DHT22;10410;51.046;6.980;2022-10-16T06:47:22;13.10;99.90
20504;DHT22;10410;51.046;6.980;2022-10-16T06:54:27;13.20;99.90
20504;DHT22;10410;51.046;6.980;2022-10-16T07:01:27;13.50;99.90
20504;DHT22;10410;51.046;6.980;2022-10-16T07:08:31;13.50;99.90
20504;DHT22;10410;51.046;6.980;2022-10-16T07:15:33;13.60;99.90
20504;DHT22;10410;51.046;6.980;2022-10-16T07:22:33;13.70;99.90
20504;DHT22;10410;51.046;6.980;2022-10-16T07:29:34;13.90;99.90
20504;DHT22;10410;51.046;6.980;2022-10-16T07:36:35;14.10;99.90
20504;DHT22;10410;51.046;6.980;2022-10-16T07:43:35;14.10;99.90
20504;DHT22;10410;51.046;6.980;2022-10-16T07:50:36;14.20;99.90
20504;DHT22;10410;51.046;6.980;2022-10-16T07:57:36;14.20;99.90
20504;DHT22;10410;51.046;6.980;2022-10-16T08:04:37;14.20;99.90
20504;DHT22;10410;51.046;6.980;2022-10-16T08:11:37;14.20;99.90
20504;DHT22;10410;51.046;6.980;2022-10-16T08:18:39;14.30;99.90
20504;DHT22;10410;51.046;6.980;2022-10-16T08:25:40;14.50;99.90
20504;DHT22;10410;51.046;6.980;2022-10-16T08:32:41;14.70;99.90
20504;DHT22;10410;51.046;6.980;2022-10-16T08:39:42;15.00;99.90
20504;DHT22;10410;51.046;6.980;2022-10-16T08:53:57;15.40;99.90
20504;DHT22;10410;51.046;6.980;2022-10-16T09:01:02;15.70;99.90
20504;DHT22;10410;51.046;6.980;2022-10-16T09:22:27;16.30;99.90
20504;DHT22;10410;51.046;6.980;2022-10-16T09:29:29;16.50;99.90
20504;DHT22;10410;51.046;6.980;2022-10-16T09:36:36;16.60;99.90
20504;DHT22;10410;51.046;6.980;2022-10-16T09:43:49;16.80;99.90
20504;DHT22;10410;51.046;6.980;2022-10-16T09:51:02;16.90;99.90
20504;DHT22;10410;51.046;6.980;2022-10-16T09:58:02;17.10;99.90
20504;DHT22;10410;51.046;6.980;2022-10-16T10:05:29;17.30;99.90
20504;DHT22;10410;51.046;6.980;2022-10-16T10:12:33;17.40;99.90
20504;DHT22;10410;51.046;6.980;2022-10-16T10:19:55;17.60;99.90
20504;DHT22;10410;51.046;6.980;2022-10-16T10:27:08;17.80;99.90
20504;DHT22;10410;51.046;6.980;2022-10-16T10:34:30;17.90;99.90
20504;DHT22;10410;51.046;6.980;2022-10-16T10:41:54;18.10;99.90
20504;DHT22;10410;51.046;6.980;2022-10-16T10:49:20;18.10;99.90
20504;DHT22;10410;51.046;6.980;2022-10-16T11:19:14;18.50;99.90
20504;DHT22;10410;51.046;6.980;2022-10-16T11:26:29;18.60;99.90
20504;DHT22;10410;51.046;6.980;2022-10-16T11:33:40;18.70;99.90
20504;DHT22;10410;51.046;6.980;2022-10-16T11:40:43;18.80;99.90
20504;DHT22;10410;51.046;6.980;2022-10-16T11:47:55;18.90;99.90
20504;DHT22;10410;51.046;6.980;2022-10-16T11:55:06;19.00;99.90
20504;DHT22;10410;51.046;6.980;2022-10-16T12:03:04;19.10;99.90
20504;DHT22;10410;51.046;6.980;2022-10-16T12:10:26;19.20;99.90
20504;DHT22;10410;51.046;6.980;2022-10-16T12:17:37;19.20;99.90
20504;DHT22;10410;51.046;6.980;2022-10-16T12:24:39;19.40;99.90
20504;DHT22;10410;51.046;6.980;2022-10-16T12:31:46;19.50;99.90
20504;DHT22;10410;51.046;6.980;2022-10-16T12:38:57;19.50;99.90
20504;DHT22;10410;51.046;6.980;2022-10-16T12:46:00;19.50;99.90
20504;DHT22;10410;51.046;6.980;2022-10-16T12:53:03;19.70;99.90
20504;DHT22;10410;51.046;6.980;2022-10-16T13:00:38;20.00;99.90
20504;DHT22;10410;51.046;6.980;2022-10-16T13:29:32;21.20;99.90
20504;DHT22;10410;51.046;6.980;2022-10-16T13:36:43;21.10;99.90
20504;DHT22;10410;51.046;6.980;2022-10-16T13:43:52;20.90;99.90
20504;DHT22;10410;51.046;6.980;2022-10-16T13:51:10;21.30;99.90
20504;DHT22;10410;51.046;6.980;2022-10-16T13:58:13;22.00;99.90
20504;DHT22;10410;51.046;6.980;2022-10-16T14:05:14;22.20;99.90
20504;DHT22;10410;51.046;6.980;2022-10-16T14:12:15;22.20;99.90
20504;DHT22;10410;51.046;6.980;2022-10-16T14:19:22;22.60;99.90
20504;DHT22;10410;51.046;6.980;2022-10-16T14:26:27;22.30;99.90
20504;DHT22;10410;51.046;6.980;2022-10-16T14:40:34;21.30;99.90
20504;DHT22;10410;51.046;6.980;2022-10-16T14:47:37;21.00;99.90
20504;DHT22;10410;51.046;6.980;2022-10-16T14:54:48;20.90;99.90
20504;DHT22;10410;51.046;6.980;2022-10-16T15:01:49;20.70;99.90
20504;DHT22;10410;51.046;6.980;2022-10-16T15:08:50;20.60;99.90
20504;DHT22;10410;51.046;6.980;2022-10-16T15:15:51;20.50;99.90
20504;DHT22;10410;51.046;6.980;2022-10-16T15:22:53;20.40;99.90
20504;DHT22;10410;51.046;6.980;2022-10-16T15:29:54;20.40;99.90
20504;DHT22;10410;51.046;6.980;2022-10-16T15:36:54;20.30;99.90
20504;DHT22;10410;51.046;6.980;2022-10-16T15:43:58;20.20;99.90
20504;DHT22;10410;51.046;6.980;2022-10-16T15:50:59;20.10;99.90
20504;DHT22;10410;51.046;6.980;2022-10-16T15:58:00;20.00;99.90
20504;DHT22;10410;51.046;6.980;2022-10-16T16:05:00;19.90;99.90
20504;DHT22;10410;51.046;6.980;2022-10-16T16:12:02;19.70;99.90
20504;DHT22;10410;51.046;6.980;2022-10-16T16:19:06;19.50;99.90
20504;DHT22;10410;51.046;6.980;2022-10-16T16:26:25;19.40;99.90
20504;DHT22;10410;51.046;6.980;2022-10-16T16:33:26;19.20;99.90
20504;DHT22;10410;51.046;6.980;2022-10-16T16:40:27;19.10;99.90
20504;DHT22;10410;51.046;6.980;2022-10-16T16:47:27;18.90;99.90
20504;DHT22;10410;51.046;6.980;2022-10-16T16:54:28;18.80;99.90
20504;DHT22;10410;51.046;6.980;2022-10-16T17:01:29;18.60;99.90
20504;DHT22;10410;51.046;6.980;2022-10-16T17:08:30;18.50;99.90
20504;DHT22;10410;51.046;6.980;2022-10-16T17:15:30;18.40;99.90
20504;DHT22;10410;51.046;6.980;2022-10-16T17:22:31;18.30;99.90
20504;DHT22;10410;51.046;6.980;2022-10-16T17:29:31;18.20;99.90
20504;DHT22;10410;51.046;6.980;2022-10-16T17:36:35;18.10;99.90
20504;DHT22;10410;51.046;6.980;2022-10-16T17:43:37;18.10;99.90
20504;DHT22;10410;51.046;6.980;2022-10-16T17:50:42;18.00;99.90
20504;DHT22;10410;51.046;6.980;2022-10-16T17:57:42;18.00;99.90
20504;DHT22;10410;51.046;6.980;2022-10-16T18:04:43;18.00;99.90
20504;DHT22;10410;51.046;6.980;2022-10-16T18:11:44;18.00;99.90
20504;DHT22;10410;51.046;6.980;2022-10-16T18:18:44;17.90;99.90
20504;DHT22;10410;51.046;6.980;2022-10-16T18:25:49;17.90;99.90
20504;DHT22;10410;51.046;6.980;2022-10-16T18:32:50;17.80;99.90
20504;DHT22;10410;51.046;6.980;2022-10-16T18:39:50;17.80;99.90
20504;DHT22;10410;51.046;6.980;2022-10-16T18:46:51;17.70;99.90
20504;DHT22;10410;51.046;6.980;2022-10-16T18:54:02;17.70;99.90
20504;DHT22;10410;51.046;6.980;2022-10-16T19:01:04;17.60;99.90
20504;DHT22;10410;51.046;6.980;2022-10-16T19:08:05;17.70;99.90
20504;DHT22;10410;51.046;6.980;2022-10-16T19:15:06;17.60;99.90
20504;DHT22;10410;51.046;6.980;2022-10-16T19:22:07;17.60;99.90
20504;DHT22;10410;51.046;6.980;2022-10-16T19:29:27;17.60;99.90
20504;DHT22;10410;51.046;6.980;2022-10-16T19:36:29;17.60;99.90
20504;DHT22;10410;51.046;6.980;2022-10-16T19:43:30;17.60;99.90
20504;DHT22;10410;51.046;6.980;2022-10-16T19:50:30;17.50;99.90
20504;DHT22;10410;51.046;6.980;2022-10-16T19:57:34;17.50;99.90
20504;DHT22;10410;51.046;6.980;2022-10-16T20:04:40;17.50;99.90
20504;DHT22;10410;51.046;6.980;2022-10-16T20:11:40;17.40;99.90
20504;DHT22;10410;51.046;6.980;2022-10-16T20:18:41;17.40;99.90
20504;DHT22;10410;51.046;6.980;2022-10-16T20:25:42;17.30;99.90
20504;DHT22;10410;51.046;6.980;2022-10-16T20:32:43;17.30;99.90
20504;DHT22;10410;51.046;6.980;2022-10-16T20:39:45;17.20;99.90
20504;DHT22;10410;51.046;6.980;2022-10-16T20:46:46;17.20;99.90
20504;DHT22;10410;51.046;6.980;2022-10-16T20:53:51;17.10;99.90
20504;DHT22;10410;51.046;6.980;2022-10-16T21:00:52;17.10;99.90
20504;DHT22;10410;51.046;6.980;2022-10-16T21:07:52;17.00;99.90
20504;DHT22;10410;51.046;6.980;2022-10-16T21:14:53;16.90;99.90
20504;DHT22;10410;51.046;6.980;2022-10-16T21:22:13;16.80;99.90
20504;DHT22;10410;51.046;6.980;2022-10-16T21:29:14;16.70;99.90
20504;DHT22;10410;51.046;6.980;2022-10-16T21:36:20;16.60;99.90
20504;DHT22;10410;51.046;6.980;2022-10-16T21:43:21;16.60;99.90
20504;DHT22;10410;51.046;6.980;2022-10-16T21:50:22;16.50;99.90
20504;DHT22;10410;51.046;6.980;2022-10-16T21:57:22;16.40;99.90
20504;DHT22;10410;51.046;6.980;2022-10-16T22:04:22;16.30;99.90
20504;DHT22;10410;51.046;6.980;2022-10-16T22:11:27;16.20;99.90
20504;DHT22;10410;51.046;6.980;2022-10-16T22:18:28;16.10;99.90
20504;DHT22;10410;51.046;6.980;2022-10-16T22:25:28;16.10;99.90
20504;DHT22;10410;51.046;6.980;2022-10-16T22:32:28;16.00;99.90
20504;DHT22;10410;51.046;6.980;2022-10-16T22:39:29;16.00;99.90
20504;DHT22;10410;51.046;6.980;2022-10-16T22:46:30;15.90;99.90
20504;DHT22;10410;51.046;6.980;2022-10-16T22:53:31;15.90;99.90
20504;DHT22;10410;51.046;6.980;2022-10-16T23:00:32;15.90;99.90
20504;DHT22;10410;51.046;6.980;2022-10-16T23:07:33;15.90;99.90
20504;DHT22;10410;51.046;6.980;2022-10-16T23:14:34;15.90;99.90
20504;DHT22;10410;51.046;6.980;2022-10-16T23:21:34;15.90;99.90
20504;DHT22;10410;51.046;6.980;2022-10-16T23:28:35;15.90;99.90
20504;DHT22;10410;51.046;6.980;2022-10-16T23:35:38;15.90;99.90
20504;DHT22;10410;51.046;6.980;2022-10-16T23:42:39;15.90;99.90
20504;DHT22;10410;51.046;6.980;2022-10-16T23:49:39;15.90;99.90
20504;DHT22;10410;51.046;6.980;2022-10-16T23:56:40;15.90;99.90
